ZMS Zukunft MarktSchwaben logo

Tagesübersicht

Fluglärm

Zukunft Marktschwaben e.V.

ZMS-Icon

Über dieses Portal haben Sie eine Übersicht über die Flugbewegungen über Markt Schwaben des heutigen Tages ...

Wartungsarbeiten

Lieber Nutzer unseres Beschwerdeportals.
Wir bitten um entschuldigung, müssen allerdings derzeit wichtige Wartungsarbeiten an den Servern durchführen.

Im Laufe der kommenden Tage wird das Portal wie gewohnt zur Verfügung stehen.




Datum

25.07.2024

KW(30)





Überflüge

10





Wind Luft Temperatur Bewölkung
N
0.51km/h
1018hPa
95%
13.4°C
min.12.82°C
max.14.62°C
0%


Informationsfenster

Überflugliste (tagesaktuell)

Beschwerde Uhrzeit Datum Alt dB1 dB2 Information Flugzeugtyp FA RB SUID Flugnummer Airline Land ICAO
06:48 25.07.2024 2.461 53.5 dB 53.5 dB FedEx Express (B738 | FDX4578) 2024072506440af430 FDX4578 FedEx Express United States B738
06:40 25.07.2024 2.728 51.5 dB 51.5 dB Lufthansa (A320 | DLH44N) 20240725063c66a630 DLH44N Lufthansa Germany A320
06:36 25.07.2024 2.484 55.5 dB 55.5 dB [n.a.] (B738 | MBU6610) 2024072506503cbe30 MBU6610 [n.a.] [n.a.] B738
06:20 25.07.2024 2.743 55 dB 55 dB TUIfly (B738 | TUI18J) 20240725063c0ca630 TUI18J TUIfly Germany B738
06:18 25.07.2024 2.370 53.5 dB 53.5 dB [n.a.] (A320 | OCN9MG) 20240725063c66b530 OCN9MG [n.a.] [n.a.] A320
06:15 25.07.2024 2.111 48.5 dB 48.5 dB TUIfly (B38M | TUI6MX) 20240725063c742830 TUI6MX TUIfly Germany B38M
06:11 25.07.2024 2.545 53 dB 53 dB [n.a.] (A320 | OCN5HN) 20240725063c66e330 OCN5HN [n.a.] [n.a.] A320
06:09 25.07.2024 2.835 49.5 dB 49.5 dB Star Air (B763 | SRR6118) 202407250645ce5630 SRR6118 Star Air Danmark B763
06:07 25.07.2024 2.553 53 dB 53 dB Condor (A320 | CFG1FX) 20240725063c647330 CFG1FX Condor Germany A320
00:02 25.07.2024 1.478 51 dB 51 dB [n.a.] (B350 | FCK2FT) 20240725003cce7130 FCK2FT [n.a.] [n.a.] B350
23:55 24.07.2024 2.934 55 dB 55 dB Lufthansa (A319 | DLH1EM) 20240724233c644c30 DLH1EM Lufthansa Germany A319
23:53 24.07.2024 2.583 52.5 dB 52.5 dB Lufthansa (A21N | DLH2558) 20240724233c64a530 DLH2558 Lufthansa Germany A21N
23:41 24.07.2024 2.896 50.5 dB 50.5 dB Air Dolomiti (E190 | DLA2TR) 202407242330078130 DLA2TR Air Dolomiti Italia E190
23:35 24.07.2024 2.370 54.5 dB 54.5 dB Emirates (A388 | UAE35Q) 20240724238963f430 UAE35Q Emirates United Arab Emirates A388
23:24 24.07.2024 3.178 42 dB 42 dB Air Cairo (A20N | MSC2931) 202407242301023b30 MSC2931 Air Cairo Egypt A20N
23:16 24.07.2024 2.332 61.5 dB 61.5 dB Lufthansa (A359 | DLH772) 20240724233c670a30 DLH772 Lufthansa Germany A359
23:14 24.07.2024 2.416 58 dB 58 dB Lufthansa (A359 | DLH790) 20240724233c670630 DLH790 Lufthansa Germany A359
23:07 24.07.2024 2.362 59 dB 59 dB Lufthansa (A359 | DLH726) 20240724233c670e30 DLH726 Lufthansa Germany A359
23:06 24.07.2024 2.347 52 dB 52 dB Lufthansa (A321 | DLH586) 20240724233c648d30 DLH586 Lufthansa Germany A321
22:56 24.07.2024 2.690 59.5 dB 59.5 dB Lufthansa (A319 | DLH7AM) 20240724223c644e30 DLH7AM Lufthansa Germany A319
22:46 24.07.2024 2.271 62.5 dB 62.5 dB Lufthansa (A321 | DLH8HA) 20240724223c664630 DLH8HA Lufthansa Germany A321
22:45 24.07.2024 2.339 50 dB 50 dB Air Dolomiti (E195 | DLA8EP) 20240724223007ef30 DLA8EP Air Dolomiti Italia E195
22:45 24.07.2024 3.178 49 dB 49 dB [n.a.] (A20N | MBU6513) 202407242251117130 MBU6513 [n.a.] [n.a.] A20N
22:41 24.07.2024 2.728 60.5 dB 60.5 dB Lufthansa (A20N | DLH9CA) 20240724223c65d230 DLH9CA Lufthansa Germany A20N
22:37 24.07.2024 2.271 48.5 dB 48.5 dB Oman Air ([n.a.] | OMA124) 202407242270c10830 OMA124 Oman Air Oman [n.a.]
22:36 24.07.2024 2.393 54 dB 54 dB Lufthansa (A321 | DLH1714) 20240724223c665230 DLH1714 Lufthansa Germany A321
22:31 24.07.2024 2.766 51 dB 51 dB Lufthansa (A20N | DLH4YX) 20240724223c654230 DLH4YX Lufthansa Germany A20N
22:29 24.07.2024 2.172 50.5 dB 50.5 dB Vueling (A321 | VLG8NK) 202407242234511630 VLG8NK Vueling Spain A321
22:14 24.07.2024 2.316 59 dB 59 dB Lufthansa (CRJ9 | DLH3KW) 20240724223c4dd530 DLH3KW Lufthansa Germany CRJ9
22:12 24.07.2024 2.629 58 dB 58 dB Austrian (A320 | AUA118G) 202407242244004f30 AUA118G Austrian Austria A320
22:07 24.07.2024 2.537 53 dB 53 dB Lufthansa (A321 | DLH7XH) 20240724223c666930 DLH7XH Lufthansa Germany A321
22:02 24.07.2024 2.537 53 dB 53 dB Air Dolomiti (E190 | DLA2CW) 202407242230039430 DLA2CW Air Dolomiti Italia E190
21:38 24.07.2024 2.537 61 dB 61 dB Lufthansa (A319 | DLH2ML) 20240724213c645030 DLH2ML Lufthansa Germany A319
21:34 24.07.2024 3.185 50.5 dB 50.5 dB Croatia Airlines (DH8D | CTN437) 2024072421501dc530 CTN437 Croatia Airlines Croatia DH8D
21:29 24.07.2024 2.492 52 dB 52 dB Lufthansa (A320 | DLH95T) 20240724213c66a630 DLH95T Lufthansa Germany A320
21:13 24.07.2024 2.499 53 dB 53 dB Aegean Airlines (A320 | AEE503) 20240724214692c730 AEE503 Aegean Airlines Greece A320
21:01 24.07.2024 3.132 49 dB 49 dB Lufthansa (A320 | DLH8MV) 20240724213c66b030 DLH8MV Lufthansa Germany A320
20:58 24.07.2024 2.476 49.5 dB 49.5 dB Lufthansa (A320 | DLH01E) 20240724203c66a430 DLH01E Lufthansa Germany A320
20:56 24.07.2024 2.454 56.5 dB 56.5 dB [n.a.] (A320 | OCN481) 20240724203c66b530 OCN481 [n.a.] [n.a.] A320
20:53 24.07.2024 2.507 43.5 dB 43.5 dB Vueling (A321 | VLG462E) 202407242034511630 VLG462E Vueling Spain A321
20:37 24.07.2024 2.530 62 dB 62 dB [n.a.] (A320 | MBU6468) 2024072420451e9030 MBU6468 [n.a.] [n.a.] A320
20:36 24.07.2024 2.438 54 dB 54 dB Lufthansa (A320 | DLH29U) 20240724203c66a830 DLH29U Lufthansa Germany A320
20:35 24.07.2024 2.583 51 dB 51 dB SunExpress (B38M | SXS6PJ) 20240724204bcdac30 SXS6PJ SunExpress Turkey B38M
20:29 24.07.2024 2.233 63.5 dB 63.5 dB Turkish Airlines (A321 | THY3TB) 20240724204baa8630 THY3TB Turkish Airlines Turkey A321
20:26 24.07.2024 2.804 55.5 dB 55.5 dB Lufthansa (BCS3 | DLH67F) 2024072420502d4630 DLH67F Lufthansa Germany BCS3
20:22 24.07.2024 2.697 53.5 dB 53.5 dB Eurowings (A320 | EWG8JB) 20240724203c4b4b30 EWG8JB Eurowings Germany A320
20:16 24.07.2024 2.324 53.5 dB 53.5 dB Lufthansa (A21N | DLH682) 20240724203c64ac30 DLH682 Lufthansa Germany A21N
20:15 24.07.2024 2.469 45 dB 45 dB [n.a.] (A20N | KMM309) 20240724204d22ab30 KMM309 [n.a.] [n.a.] A20N
20:13 24.07.2024 2.476 56.5 dB 56.5 dB Air Dolomiti (E190 | DLA5HU) 202407242030078230 DLA5HU Air Dolomiti Italia E190
20:10 24.07.2024 2.591 53 dB 53 dB Lufthansa (A21N | DLH5KV) 20240724203c64a830 DLH5KV Lufthansa Germany A21N
20:08 24.07.2024 2.263 64.5 dB 64.5 dB [n.a.] (B738 | TKJ43L) 20240724204bab5330 TKJ43L [n.a.] [n.a.] B738
20:08 24.07.2024 853 61.5 dB 61.5 dB [n.a.] (P28A | DEFLQ) 20240724203d130a30 DEFLQ [n.a.] [n.a.] P28A
20:06 24.07.2024 2.438 62 dB 62 dB Air Baltic (BCS3 | BTI6UQ) 2024072420502cd730 BTI6UQ Air Baltic Latvia BCS3
20:02 24.07.2024 2.987 44 dB 44 dB Lufthansa (A320 | DLH9HH) 20240724203c66a230 DLH9HH Lufthansa Germany A320
20:01 24.07.2024 2.332 52.5 dB 52.5 dB Lufthansa (A320 | DLH5AX) 20240724203c66ac30 DLH5AX Lufthansa Germany A320
19:51 24.07.2024 2.080 63 dB 63 dB Lufthansa (A359 | DLH722) 20240724193c670930 DLH722 Lufthansa Germany A359
19:43 24.07.2024 2.537 58 dB 58 dB Aegean Airlines (A20N | AEE807) 202407241946b8b030 AEE807 Aegean Airlines Greece A20N
19:42 24.07.2024 2.522 51 dB 51 dB Lufthansa (CRJ9 | DLH4RF) 20240724193c4dc730 DLH4RF Lufthansa Germany CRJ9
19:40 24.07.2024 2.408 61 dB 61 dB Austrian (E190 | AUA116A) 202407241944081e30 AUA116A Austrian Austria E190
19:40 24.07.2024 823 61 dB 61 dB [n.a.] (P28A | DEFLQ) 20240724193d130a30 DEFLQ [n.a.] [n.a.] P28A
19:24 24.07.2024 2.057 44.5 dB 44.5 dB [n.a.] (G280 | DCS105) 20240724193c925830 DCS105 [n.a.] [n.a.] G280
19:16 24.07.2024 1.661 48 dB 48 dB Air Nostrum (CRJX | ANE83JW) 202407241934530e30 ANE83JW Air Nostrum Spain CRJX
18:54 24.07.2024 2.576 47 dB 47 dB Air Dolomiti (E190 | DLA6MU) 202407241830039330 DLA6MU Air Dolomiti Italia E190
18:49 24.07.2024 2.332 49.5 dB 49.5 dB Air Dolomiti (E190 | DLA7MN) 202407241830039430 DLA7MN Air Dolomiti Italia E190
18:44 24.07.2024 2.652 43 dB 43 dB Lufthansa (CRJ9 | DLH1VY) 20240724183c4dc130 DLH1VY Lufthansa Germany CRJ9
18:41 24.07.2024 2.461 51 dB 51 dB Lufthansa (A321 | DLH05C) 20240724183c665730 DLH05C Lufthansa Germany A321
18:39 24.07.2024 2.766 45.5 dB 45.5 dB Air Dolomiti (E195 | DLA2LJ) 20240724183007ee30 DLA2LJ Air Dolomiti Italia E195
18:37 24.07.2024 777 63.5 dB 63.5 dB [n.a.] ( | CHX15) 20240724183e0f9230 CHX15 [n.a.] [n.a.]
18:36 24.07.2024 2.355 56 dB 56 dB Condor (A320 | CFG4XE) 20240724183c647030 CFG4XE Condor Germany A320
18:33 24.07.2024 770 56 dB 56 dB [n.a.] (FK14 | DMNMR) 20240724183ff05230 DMNMR [n.a.] [n.a.] FK14
18:33 24.07.2024 2.172 53.5 dB 53.5 dB Eurowings (A320 | EWG6615) 20240724183c4b4e30 EWG6615 Eurowings Germany A320
18:31 24.07.2024 2.865 46.5 dB 46.5 dB Lufthansa (CRJ9 | DLH7AY) 20240724183c4dc930 DLH7AY Lufthansa Germany CRJ9
18:29 24.07.2024 2.880 50.5 dB 50.5 dB [n.a.] (A20N | ITY436) 20240724184cada730 ITY436 [n.a.] [n.a.] A20N
18:18 24.07.2024 2.461 48 dB 48 dB Lufthansa (A319 | DLH3VN) 20240724183c644630 DLH3VN Lufthansa Germany A319
18:11 24.07.2024 2.880 36 dB 36 dB [n.a.] (C55B | EUL5R) 20240724183ccbb630 EUL5R [n.a.] [n.a.] C55B
17:49 24.07.2024 2.156 57 dB 57 dB Saudi Arabian Airlines (A320 | SVA170) 202407241771007030 SVA170 Saudi Arabian Airlines Saudi Arabia A320
17:42 24.07.2024 2.736 51 dB 51 dB Pegasus Airlines (A21N | PGT5DT) 20240724174bc84330 PGT5DT Pegasus Airlines Turkey A21N
17:35 24.07.2024 2.126 59.5 dB 59.5 dB Qatar Airways (B789 | QTR88H) 202407241706a2f130 QTR88H Qatar Airways Qatar B789
17:31 24.07.2024 2.088 52 dB 52 dB Condor (A321 | CFG168) 20240724173c0ac530 CFG168 Condor Germany A321
17:30 24.07.2024 3.292 43 dB 43 dB Eurowings (A320 | EWG7PM) 20240724173c4b4b30 EWG7PM Eurowings Germany A320
17:28 24.07.2024 2.560 61.5 dB 61.5 dB Turkish Airlines (A332 | THY8PZ) 20240724174ba93230 THY8PZ Turkish Airlines Turkey A332
17:23 24.07.2024 2.461 57.5 dB 57.5 dB Condor (A320 | CFG4TZ) 20240724173c647330 CFG4TZ Condor Germany A320
17:20 24.07.2024 2.332 64 dB 64 dB Somon Air (B738 | SMR122) 202407241742450230 SMR122 Somon Air Tajikistan B738
17:17 24.07.2024 2.476 58.5 dB 58.5 dB Egyptair (B738 | MSR788) 20240724170101bc30 MSR788 Egyptair Egypt B738
17:16 24.07.2024 2.423 63.5 dB 63.5 dB Austrian (E190 | AUA104) 202407241744082130 AUA104 Austrian Austria E190
17:15 24.07.2024 2.957 50.5 dB 50.5 dB Lufthansa (A320 | DLH5HJ) 20240724173c66b030 DLH5HJ Lufthansa Germany A320
17:10 24.07.2024 762 50.5 dB 50.5 dB [n.a.] (EC45 | CHX01) 20240724173e120230 CHX01 [n.a.] [n.a.] EC45
17:03 24.07.2024 2.987 54 dB 54 dB Croatia Airlines (DH8D | CTN4437) 2024072417501da930 CTN4437 Croatia Airlines Croatia DH8D
16:55 24.07.2024 838 64.5 dB 64.5 dB [n.a.] (BREZ | DMMUC) 20240724163ff80830 DMMUC [n.a.] [n.a.] BREZ
16:55 24.07.2024 2.233 64.5 dB 64.5 dB Lufthansa (A359 | DLH718) 20240724163c670130 DLH718 Lufthansa Germany A359
16:53 24.07.2024 2.263 54 dB 54 dB Lufthansa (A320 | DLH6VX) 20240724163c66a130 DLH6VX Lufthansa Germany A320
16:51 24.07.2024 2.537 56.5 dB 56.5 dB Lufthansa (A321 | DLH1UY) 20240724163c665330 DLH1UY Lufthansa Germany A321
16:46 24.07.2024 2.530 57.5 dB 57.5 dB Lufthansa (A321 | DLH5LX) 20240724163c665930 DLH5LX Lufthansa Germany A321
16:44 24.07.2024 2.408 63 dB 63 dB Lufthansa (A319 | DLH4NH) 20240724163c659030 DLH4NH Lufthansa Germany A319
16:41 24.07.2024 2.667 61.5 dB 61.5 dB Lufthansa (CRJ9 | DLH1686) 20240724163c4dd630 DLH1686 Lufthansa Germany CRJ9
16:41 24.07.2024 2.393 59 dB 59 dB Air Dolomiti (E190 | DLA8YY) 202407241630055830 DLA8YY Air Dolomiti Italia E190
16:36 24.07.2024 2.629 62.5 dB 62.5 dB [n.a.] ([n.a.] | FOE616) 20240724164a192230 FOE616 [n.a.] [n.a.] [n.a.]
16:32 24.07.2024 2.065 68.5 dB 68.5 dB Emirates (A388 | UAE5T) 202407241689645b30 UAE5T Emirates United Arab Emirates A388
16:31 24.07.2024 2.507 56.5 dB 56.5 dB Air Dolomiti (E195 | DLA9HT) 20240724163007ef30 DLA9HT Air Dolomiti Italia E195
16:20 24.07.2024 2.720 63 dB 63 dB Air Dolomiti (E190 | DLA07X) 202407241630078030 DLA07X Air Dolomiti Italia E190
Beschwerde Uhrzeit Datum Alt dB1 dB2 Information Flugzeugtyp FA RB SUID Flugnummer Airline Land ICAO
06:48 25.07.2024 2.461 53.5 dB 53.5 dB FedEx Express (B738 | FDX4578) 2024072506440af430 FDX4578 FedEx Express United States B738
06:40 25.07.2024 2.728 51.5 dB 51.5 dB Lufthansa (A320 | DLH44N) 20240725063c66a630 DLH44N Lufthansa Germany A320
06:36 25.07.2024 2.484 55.5 dB 55.5 dB [n.a.] (B738 | MBU6610) 2024072506503cbe30 MBU6610 [n.a.] [n.a.] B738
06:20 25.07.2024 2.743 55 dB 55 dB TUIfly (B738 | TUI18J) 20240725063c0ca630 TUI18J TUIfly Germany B738
06:18 25.07.2024 2.370 53.5 dB 53.5 dB [n.a.] (A320 | OCN9MG) 20240725063c66b530 OCN9MG [n.a.] [n.a.] A320
06:15 25.07.2024 2.111 48.5 dB 48.5 dB TUIfly (B38M | TUI6MX) 20240725063c742830 TUI6MX TUIfly Germany B38M
06:11 25.07.2024 2.545 53 dB 53 dB [n.a.] (A320 | OCN5HN) 20240725063c66e330 OCN5HN [n.a.] [n.a.] A320
06:09 25.07.2024 2.835 49.5 dB 49.5 dB Star Air (B763 | SRR6118) 202407250645ce5630 SRR6118 Star Air Danmark B763
06:07 25.07.2024 2.553 53 dB 53 dB Condor (A320 | CFG1FX) 20240725063c647330 CFG1FX Condor Germany A320
00:02 25.07.2024 1.478 51 dB 51 dB [n.a.] (B350 | FCK2FT) 20240725003cce7130 FCK2FT [n.a.] [n.a.] B350